Time;durP1;ratioP1;P1;durP2;ratioP2;P2;SDS_P1;SDS_P2;PMS_P1;PMS_P2;Temp;Humidity;BMP_temperature;BMP_pressure;BME280_temperature;BME280_humidity;BME280_pressure;Samples;Min_cycle;Max_cycle;Signal;HPM_P1;HPM_P2
2022/01/04 00:00:10;;;;;;;12.40;7.13;;;;;;;10.13;71.57;99652.22;682526;29;1258;-86
2022/01/04 00:00:34;;;;;;;13.52;7.40;;;;;;;10.00;71.81;99654.69;682363;28;1104;-87
2022/01/04 00:00:55;;;;;;;12.10;7.45;;;;;;;10.05;71.88;99654.75;679131;29;1391;-85
2022/01/04 00:01:15;;;;;;;12.90;7.55;;;;;;;10.10;72.12;99658.31;677264;29;1171;-86
2022/01/04 00:01:36;;;;;;;12.90;7.68;;;;;;;10.13;71.89;99654.84;682016;29;1159;-85
2022/01/04 00:01:58;;;;;;;13.53;7.50;;;;;;;10.11;71.64;99665.25;682653;29;1089;-86
2022/01/04 00:02:19;;;;;;;12.68;7.20;;;;;;;10.00;72.19;99651.22;677299;29;1589;-86
2022/01/04 00:02:40;;;;;;;12.27;6.80;;;;;;;9.95;72.16;99647.69;678713;29;1292;-86
2022/01/04 00:03:00;;;;;;;10.07;6.50;;;;;;;9.98;72.21;99648.59;679884;29;1180;-86
2022/01/04 00:03:21;;;;;;;8.52;6.10;;;;;;;10.15;71.87;99646.19;680720;29;1863;-86
2022/01/04 00:03:41;;;;;;;9.20;6.40;;;;;;;10.21;71.67;99647.13;677152;29;1978;-86
2022/01/04 00:04:02;;;;;;;8.90;6.30;;;;;;;10.24;71.83;99642.84;682463;29;1293;-85
2022/01/04 00:04:23;;;;;;;9.85;6.60;;;;;;;10.27;71.34;99645.47;679962;29;733;-85
2022/01/04 00:04:44;;;;;;;9.63;6.20;;;;;;;10.21;71.60;99645.38;684878;28;1083;-85
2022/01/04 00:05:05;;;;;;;11.05;6.40;;;;;;;10.24;71.23;99640.25;679915;29;1312;-85
2022/01/04 00:05:25;;;;;;;10.00;6.10;;;;;;;10.22;71.46;99635.81;677494;29;1401;-85
2022/01/04 00:05:46;;;;;;;8.77;6.10;;;;;;;10.23;71.54;99645.44;684348;28;1306;-85
2022/01/04 00:06:09;;;;;;;7.90;6.10;;;;;;;10.16;71.62;99636.63;685239;28;1302;-86
2022/01/04 00:06:30;;;;;;;8.35;6.13;;;;;;;10.18;71.56;99640.13;682657;29;1254;-86
2022/01/04 00:06:51;;;;;;;11.60;6.20;;;;;;;10.13;71.74;99641.78;682806;28;761;-86
2022/01/04 00:07:11;;;;;;;12.15;6.15;;;;;;;10.19;71.66;99648.84;679887;29;1948;-86
2022/01/04 00:07:32;;;;;;;12.32;6.30;;;;;;;10.20;71.53;99647.97;682651;29;1037;-85
2022/01/04 00:07:53;;;;;;;9.85;6.22;;;;;;;10.26;71.52;99650.69;677139;29;1075;-85
2022/01/04 00:08:14;;;;;;;9.77;6.25;;;;;;;10.22;71.54;99638.44;674855;29;1884;-84
2022/01/04 00:08:34;;;;;;;9.73;6.50;;;;;;;10.26;71.41;99642.88;674512;29;1374;-85
2022/01/04 00:08:59;;;;;;;10.15;6.55;;;;;;;10.22;71.44;99631.50;679646;29;1886;-85
2022/01/04 00:09:20;;;;;;;10.68;6.40;;;;;;;10.27;71.27;99647.22;682194;28;1230;-85
2022/01/04 00:09:43;;;;;;;11.30;6.60;;;;;;;10.28;71.51;99648.97;682482;29;1178;-85
2022/01/04 00:10:04;;;;;;;11.27;7.15;;;;;;;10.27;71.38;99644.63;682249;29;1961;-85
2022/01/04 00:10:27;;;;;;;10.55;7.13;;;;;;;10.23;71.24;99635.00;679094;28;1866;-85
2022/01/04 00:10:49;;;;;;;11.80;6.93;;;;;;;10.30;71.35;99644.63;682317;29;2036;-85
2022/01/04 00:11:18;;;;;;;11.45;6.93;;;;;;;10.26;71.52;99635.06;683667;28;1710;-85
2022/01/04 00:11:59;;;;;;;11.55;6.88;;;;;;;10.25;71.15;99635.88;684280;28;1706;-86
2022/01/04 00:13:38;;;;;;;10.07;6.78;;;;;;;10.31;71.55;99638.56;687840;28;1236;-85
2022/01/04 00:13:59;;;;;;;10.37;6.97;;;;;;;10.32;71.35;99642.06;679944;29;1314;-85
2022/01/04 00:14:20;;;;;;;10.52;7.05;;;;;;;10.25;71.32;99633.28;677433;29;1291;-85
2022/01/04 00:14:40;;;;;;;11.00;6.60;;;;;;;10.32;71.35;99636.84;673977;29;1101;-85
2022/01/04 00:15:01;;;;;;;11.68;6.60;;;;;;;10.30;71.39;99639.44;675817;29;1163;-86
2022/01/04 00:15:22;;;;;;;11.77;6.47;;;;;;;10.35;70.96;99637.75;680107;29;1253;-85
2022/01/04 00:15:44;;;;;;;10.32;6.88;;;;;;;10.32;71.24;99629.88;682460;28;1282;-85
2022/01/04 00:16:07;;;;;;;9.00;6.75;;;;;;;10.30;71.29;99639.44;682516;29;988;-85
2022/01/04 00:16:28;;;;;;;11.98;6.85;;;;;;;10.27;71.37;99628.97;685307;28;946;-86
2022/01/04 00:16:50;;;;;;;14.18;6.72;;;;;;;10.33;71.10;99642.06;682621;29;1181;-85
2022/01/04 00:17:11;;;;;;;15.00;7.03;;;;;;;10.34;71.36;99637.72;683740;28;1227;-86
2022/01/04 00:17:31;;;;;;;13.10;7.00;;;;;;;10.29;71.22;99627.25;677983;29;1231;-85
2022/01/04 00:17:53;;;;;;;11.05;6.80;;;;;;;10.33;71.21;99628.16;682875;28;1221;-85
2022/01/04 00:18:13;;;;;;;9.10;6.72;;;;;;;10.36;71.20;99636.88;682279;28;1449;-85
2022/01/04 00:18:34;;;;;;;8.80;6.50;;;;;;;10.32;71.29;99637.69;682127;29;1838;-85
2022/01/04 00:18:55;;;;;;;9.23;6.75;;;;;;;10.34;71.23;99636.00;682909;28;1269;-85
2022/01/04 00:19:17;;;;;;;9.75;6.80;;;;;;;10.27;71.37;99623.75;684846;28;1203;-85
2022/01/04 00:19:38;;;;;;;11.60;7.18;;;;;;;10.31;71.16;99630.75;678480;29;1494;-85
2022/01/04 00:19:58;;;;;;;11.13;7.20;;;;;;;10.32;71.32;99632.47;681399;29;1207;-85
2022/01/04 00:20:19;;;;;;;12.82;7.47;;;;;;;10.29;71.28;99622.03;687175;28;1311;-85
2022/01/04 00:20:39;;;;;;;13.02;7.50;;;;;;;10.34;71.17;99636.00;682627;29;1060;-85
2022/01/04 00:21:00;;;;;;;13.47;7.33;;;;;;;10.34;71.21;99636.00;677637;29;1730;-86
2022/01/04 00:21:21;;;;;;;12.13;7.40;;;;;;;10.34;71.52;99636.00;684911;28;1576;-85
2022/01/04 00:21:42;;;;;;;10.52;7.10;;;;;;;10.28;71.21;99618.53;689838;28;1933;-85
2022/01/04 00:22:06;;;;;;;10.88;7.22;;;;;;;10.33;71.38;99626.41;688082;28;963;-85
2022/01/04 00:22:26;;;;;;;11.57;6.93;;;;;;;10.31;71.14;99619.44;684358;28;1138;-87
2022/01/04 00:22:47;;;;;;;11.90;7.00;;;;;;;10.35;71.23;99616.00;679891;29;1219;-85
2022/01/04 00:23:07;;;;;;;11.47;7.00;;;;;;;10.33;71.31;99622.94;674572;29;1115;-85
2022/01/04 00:23:28;;;;;;;9.80;7.05;;;;;;;10.32;71.25;99622.06;676382;29;2000;-85
2022/01/04 00:23:49;;;;;;;10.20;6.97;;;;;;;10.25;70.98;99609.81;677284;29;1486;-85
2022/01/04 00:24:09;;;;;;;9.63;6.90;;;;;;;10.23;71.29;99616.75;677516;29;1308;-85
2022/01/04 00:24:30;;;;;;;9.57;7.05;;;;;;;10.34;71.19;99622.97;677226;29;1191;-86
2022/01/04 00:24:50;;;;;;;8.43;6.60;;;;;;;10.26;71.28;99609.84;676755;29;1095;-85
2022/01/04 00:25:11;;;;;;;8.68;6.50;;;;;;;10.26;71.32;99611.59;679969;29;1067;-85
2022/01/04 00:25:32;;;;;;;9.02;6.82;;;;;;;10.20;71.39;99601.91;678090;29;1738;-84
2022/01/04 00:25:52;;;;;;;9.32;7.03;;;;;;;10.19;71.34;99604.53;680073;29;1196;-85
2022/01/04 00:26:13;;;;;;;9.20;6.93;;;;;;;10.22;71.22;99614.97;679996;29;1143;-85
2022/01/04 00:27:04;;;;;;;9.50;7.00;;;;;;;10.25;71.41;99620.25;677079;29;1480;-85
2022/01/04 00:27:25;;;;;;;10.52;7.03;;;;;;;10.21;71.47;99608.00;677606;29;879;-85
2022/01/04 00:27:46;;;;;;;10.83;7.17;;;;;;;10.15;71.59;99596.66;674562;29;1301;-85
2022/01/04 00:28:10;;;;;;;11.57;7.03;;;;;;;10.26;71.25;99611.59;679859;29;847;-85
2022/01/04 00:28:39;;;;;;;10.75;6.75;;;;;;;10.19;71.70;99604.53;682086;29;1993;-85
2022/01/04 00:28:59;;;;;;;10.30;6.63;;;;;;;10.16;71.39;99594.94;682185;28;1523;-85
2022/01/04 00:29:20;;;;;;;11.70;6.40;;;;;;;10.22;71.29;99610.66;682134;29;985;-85
2022/01/04 00:29:40;;;;;;;11.93;6.53;;;;;;;10.23;71.43;99603.72;688022;28;1166;-85
2022/01/04 00:30:01;;;;;;;11.63;6.60;;;;;;;10.15;71.40;99599.25;682207;28;1977;-85
2022/01/04 00:30:24;;;;;;;8.20;6.40;;;;;;;10.20;71.29;99601.06;679926;29;1565;-85
2022/01/04 00:30:44;;;;;;;8.18;6.07;;;;;;;10.18;71.49;99614.06;677734;29;1057;-85
2022/01/04 00:31:05;;;;;;;7.95;6.15;;;;;;;10.13;71.42;99611.41;680087;29;1059;-85
2022/01/04 00:31:35;;;;;;;7.78;6.15;;;;;;;10.14;71.59;99602.72;680015;29;1210;-85
2022/01/04 00:31:56;;;;;;;9.57;6.10;;;;;;;10.18;71.36;99605.38;681207;29;1761;-86
2022/01/04 00:32:16;;;;;;;10.95;5.65;;;;;;;10.20;71.37;99599.31;674735;29;1007;-85
2022/01/04 00:32:37;;;;;;;11.20;5.50;;;;;;;10.32;71.25;99601.19;674733;29;1069;-85
2022/01/04 00:32:58;;;;;;;10.20;5.40;;;;;;;10.41;70.99;99608.25;684964;28;1287;-86
2022/01/04 00:33:18;;;;;;;9.05;5.43;;;;;;;10.45;70.67;99601.34;690663;28;1195;-86
2022/01/04 00:33:39;;;;;;;7.78;5.63;;;;;;;10.47;70.54;99604.81;685200;28;1093;-86
2022/01/04 00:33:59;;;;;;;9.77;5.87;;;;;;;10.46;70.35;99597.84;679649;29;1298;-86
2022/01/04 00:34:20;;;;;;;8.73;5.93;;;;;;;10.52;70.22;99613.56;682527;29;1203;-86
2022/01/04 00:34:41;;;;;;;7.70;5.40;;;;;;;10.58;69.95;99612.75;679799;29;1192;-86
2022/01/04 00:35:02;;;;;;;5.50;4.82;;;;;;;10.56;69.96;99612.72;680015;29;1366;-86
2022/01/04 00:35:22;;;;;;;6.37;4.70;;;;;;;10.53;70.18;99605.78;676937;29;1373;-85
2022/01/04 00:35:44;;;;;;;6.25;4.63;;;;;;;10.55;70.13;99613.59;677121;29;1803;-85
2022/01/04 00:36:06;;;;;;;5.97;4.72;;;;;;;10.54;70.19;99611.84;679812;28;1218;-86
2022/01/04 00:36:26;;;;;;;6.93;5.00;;;;;;;10.54;70.02;99612.72;682580;29;1741;-85
2022/01/04 00:36:47;;;;;;;8.18;5.10;;;;;;;10.58;70.15;99610.13;679897;29;1277;-85
2022/01/04 00:37:08;;;;;;;7.80;4.85;;;;;;;10.60;69.84;99632.78;685313;28;1308;-86
2022/01/04 00:37:28;;;;;;;7.18;4.72;;;;;;;10.58;69.92;99613.63;680014;29;1108;-85
2022/01/04 00:37:49;;;;;;;7.33;4.60;;;;;;;10.55;69.96;99610.97;682290;29;1149;-86
2022/01/04 00:38:10;;;;;;;7.53;4.90;;;;;;;10.54;70.10;99617.06;682524;29;1095;-85
2022/01/04 00:38:31;;;;;;;7.47;5.00;;;;;;;10.47;69.82;99607.44;682380;29;1775;-86
2022/01/04 00:38:51;;;;;;;8.50;5.33;;;;;;;10.51;69.69;99609.22;682776;29;769;-86
2022/01/04 00:39:18;;;;;;;7.68;5.03;;;;;;;10.54;69.50;99601.41;684923;28;1070;-86
2022/01/04 00:39:39;;;;;;;7.47;4.43;;;;;;;10.56;69.69;99604.91;677362;29;1195;-85
2022/01/04 00:40:00;;;;;;;7.15;4.40;;;;;;;10.59;69.70;99594.50;674743;29;1368;-86
2022/01/04 00:40:20;;;;;;;6.93;4.40;;;;;;;10.58;69.48;99605.81;679378;29;1235;-85
2022/01/04 00:40:41;;;;;;;6.55;4.13;;;;;;;10.56;69.65;99604.91;679714;29;1810;-85
2022/01/04 00:41:01;;;;;;;6.53;4.30;;;;;;;10.51;69.66;99594.44;679451;29;1046;-86
2022/01/04 00:41:22;;;;;;;6.87;4.57;;;;;;;10.54;69.73;99585.75;683503;28;717;-85
2022/01/04 00:41:43;;;;;;;6.45;4.93;;;;;;;10.59;69.51;99594.50;683978;28;1183;-85
2022/01/04 00:42:04;;;;;;;5.97;4.90;;;;;;;10.61;69.44;99597.13;682483;29;1124;-86
2022/01/04 00:42:24;;;;;;;6.30;4.88;;;;;;;10.54;69.58;99575.31;674857;29;1409;-85
2022/01/04 00:42:45;;;;;;;7.10;4.63;;;;;;;10.59;69.56;99588.41;680017;29;1046;-85
2022/01/04 00:43:05;;;;;;;9.70;4.95;;;;;;;10.61;69.53;99592.78;682683;29;966;-86
2022/01/04 00:43:26;;;;;;;9.40;5.17;;;;;;;10.58;69.85;99589.28;685258;28;1302;-85
2022/01/04 00:43:46;;;;;;;7.93;5.20;;;;;;;10.34;70.05;99590.78;682541;29;1280;-85
2022/01/04 00:44:07;;;;;;;5.85;4.85;;;;;;;10.27;70.19;99602.91;678331;29;1133;-85
2022/01/04 00:44:28;;;;;;;5.87;4.53;;;;;;;10.20;70.30;99598.44;682509;29;1036;-85
2022/01/04 00:44:48;;;;;;;8.55;4.50;;;;;;;10.26;70.46;99593.34;685350;28;1163;-85
2022/01/04 00:45:09;;;;;;;8.50;4.55;;;;;;;10.37;70.32;99588.19;687890;28;1228;-85
2022/01/04 00:45:31;;;;;;;9.57;4.80;;;;;;;10.48;70.11;99598.75;677391;29;1424;-85
2022/01/04 00:45:53;;;;;;;7.07;4.70;;;;;;;10.48;70.05;99598.75;681991;28;1471;-85
2022/01/04 00:46:16;;;;;;;6.85;4.40;;;;;;;10.46;70.06;99587.44;680001;29;1109;-85
2022/01/04 00:46:37;;;;;;;7.30;4.40;;;;;;;10.45;69.82;99590.91;686506;28;1233;-85
2022/01/04 00:46:59;;;;;;;7.70;4.60;;;;;;;10.51;69.59;99590.97;680068;29;1237;-85
2022/01/04 00:47:26;;;;;;;8.25;4.85;;;;;;;10.49;69.74;99592.66;682535;29;1667;-86
2022/01/04 00:49:09;;;;;;;9.55;4.80;;;;;;;10.48;69.80;99585.69;679699;28;1406;-85
2022/01/04 00:49:28;;;;;;;7.65;5.28;;;;;;;10.43;70.03;99590.03;681149;28;1268;-84
2022/01/04 00:49:48;;;;;;;7.80;5.20;;;;;;;10.54;69.57;99596.19;679889;29;1305;-86
2022/01/04 00:50:09;;;;;;;6.25;4.90;;;;;;;10.55;69.86;99588.41;677675;29;1470;-84
2022/01/04 00:50:31;;;;;;;6.45;4.63;;;;;;;10.57;69.57;99582.31;682231;28;1792;-85
2022/01/04 00:50:52;;;;;;;6.85;4.88;;;;;;;10.54;69.72;99585.75;685494;28;771;-85
2022/01/04 00:51:13;;;;;;;6.27;4.77;;;;;;;10.54;69.49;99575.31;685197;28;1309;-85
2022/01/04 00:51:50;;;;;;;5.75;4.90;;;;;;;10.54;69.59;99573.59;682304;29;1492;-85
2022/01/04 00:52:16;;;;;;;6.45;5.28;;;;;;;10.57;69.65;99580.56;679855;29;1037;-85
2022/01/04 00:52:36;;;;;;;7.20;5.40;;;;;;;10.62;69.61;99589.31;682494;29;1465;-84
2022/01/04 00:52:58;;;;;;;7.07;5.13;;;;;;;10.54;69.37;99583.16;679925;29;1185;-85
2022/01/04 00:53:19;;;;;;;7.10;5.00;;;;;;;10.54;69.71;99572.72;679925;29;1238;-86
2022/01/04 00:53:40;;;;;;;6.47;4.80;;;;;;;10.62;69.29;99583.25;682293;28;1820;-85
2022/01/04 00:54:00;;;;;;;5.60;4.65;;;;;;;10.61;69.46;99574.53;680031;29;1147;-85
2022/01/04 00:54:22;;;;;;;7.10;5.00;;;;;;;10.55;69.37;99572.75;685232;28;1271;-86
2022/01/04 00:54:42;;;;;;;8.93;5.40;;;;;;;10.61;69.34;99574.53;679789;29;1290;-85
2022/01/04 00:55:03;;;;;;;8.63;5.20;;;;;;;10.63;69.21;99579.75;680023;29;1222;-85
2022/01/04 00:55:25;;;;;;;8.15;5.18;;;;;;;10.63;69.32;99580.63;680052;29;1407;-86
2022/01/04 00:55:57;;;;;;;7.80;5.40;;;;;;;10.59;69.38;99568.44;678772;29;1723;-85
2022/01/04 00:56:18;;;;;;;9.90;5.90;;;;;;;10.55;69.30;99571.84;674222;29;1839;-86
2022/01/04 00:56:39;;;;;;;9.15;5.70;;;;;;;10.62;69.35;99578.03;674117;29;1327;-85
2022/01/04 00:57:00;;;;;;;9.32;5.70;;;;;;;10.67;69.42;99581.53;674384;29;1816;-85
2022/01/04 00:57:20;;;;;;;8.05;5.40;;;;;;;10.60;69.41;99558.84;674747;29;1390;-85
2022/01/04 00:57:41;;;;;;;8.20;5.33;;;;;;;10.69;69.57;99575.47;679790;29;1321;-85
2022/01/04 00:58:03;;;;;;;9.30;5.40;;;;;;;10.64;69.23;99561.50;679907;29;1192;-85
2022/01/04 00:58:23;;;;;;;10.63;5.60;;;;;;;10.61;69.45;99551.03;677498;29;952;-85
2022/01/04 00:58:44;;;;;;;9.20;5.57;;;;;;;10.63;69.23;99554.53;674156;29;1402;-85
2022/01/04 00:59:05;;;;;;;8.10;5.30;;;;;;;10.60;69.21;99549.31;677251;29;1174;-85
2022/01/04 00:59:25;;;;;;;6.88;5.30;;;;;;;10.64;69.27;99560.63;677018;29;1163;-85
2022/01/04 00:59:46;;;;;;;8.43;5.40;;;;;;;10.67;69.18;99571.97;679839;28;1099;-86
2022/01/04 01:00:09;;;;;;;9.37;5.50;;;;;;;10.61;69.02;99551.03;677382;29;1036;-86
2022/01/04 01:00:31;;;;;;;9.15;5.40;;;;;;;10.58;69.14;99551.03;679072;29;1391;-85
2022/01/04 01:01:00;;;;;;;8.00;5.35;;;;;;;10.63;69.07;99556.28;680064;29;1177;-85
2022/01/04 01:01:21;;;;;;;5.95;5.28;;;;;;;10.53;69.30;99548.38;679942;29;1142;-85
2022/01/04 01:01:42;;;;;;;5.95;5.13;;;;;;;10.38;69.44;99562.16;682499;28;1277;-85
2022/01/04 01:02:03;;;;;;;7.67;5.57;;;;;;;10.36;69.66;99565.59;674609;29;1303;-85
2022/01/04 01:02:24;;;;;;;8.75;5.90;;;;;;;10.31;69.91;99567.31;679260;29;1952;-85
2022/01/04 01:02:44;;;;;;;10.43;6.10;;;;;;;10.28;70.13;99562.94;679902;29;1361;-85
2022/01/04 01:03:06;;;;;;;9.13;5.88;;;;;;;10.27;69.96;99558.56;682652;29;950;-86
2022/01/04 01:03:26;;;;;;;8.55;5.55;;;;;;;10.22;70.32;99558.50;677591;29;827;-85
2022/01/04 01:03:47;;;;;;;7.20;5.07;;;;;;;10.24;70.54;99561.13;677127;29;2075;-86
2022/01/04 01:04:09;;;;;;;7.40;4.70;;;;;;;10.19;70.64;99552.38;685351;28;1109;-85
2022/01/04 01:04:30;;;;;;;8.06;4.90;;;;;;;10.22;70.83;99560.22;684147;28;1110;-86
2022/01/04 01:04:51;;;;;;;7.07;4.97;;;;;;;10.08;70.69;99550.53;682626;29;1188;-85
2022/01/04 01:05:12;;;;;;;6.30;5.20;;;;;;;10.06;70.85;99546.16;679844;29;1176;-86
2022/01/04 01:05:33;;;;;;;6.85;5.30;;;;;;;10.09;70.92;99551.41;680336;29;1260;-85
2022/01/04 01:05:54;;;;;;;7.05;5.22;;;;;;;10.13;70.70;99556.66;677296;29;834;-86
2022/01/04 01:06:14;;;;;;;7.33;5.00;;;;;;;10.12;71.13;99549.69;679240;29;1636;-85
2022/01/04 01:06:35;;;;;;;9.23;4.93;;;;;;;10.11;70.96;99555.78;675668;29;923;-86
2022/01/04 01:06:56;;;;;;;9.00;4.95;;;;;;;10.20;70.90;99554.13;679983;29;1341;-86
2022/01/04 01:07:17;;;;;;;7.30;5.15;;;;;;;10.12;70.74;99546.22;679970;29;913;-86
2022/01/04 01:07:38;;;;;;;7.00;5.32;;;;;;;10.20;70.87;99562.81;679914;29;1271;-85
2022/01/04 01:07:59;;;;;;;7.95;5.57;;;;;;;10.09;71.19;99541.84;676775;29;1263;-86
2022/01/04 01:08:20;;;;;;;8.70;5.35;;;;;;;10.13;70.68;99559.28;679901;29;1277;-85
2022/01/04 01:08:41;;;;;;;8.65;5.18;;;;;;;10.13;71.11;99554.06;677269;29;1482;-86
2022/01/04 01:09:04;;;;;;;8.65;4.80;;;;;;;10.15;71.10;99554.94;682512;29;1348;-85
2022/01/04 01:09:29;;;;;;;8.65;4.80;;;;;;;10.06;70.81;99540.97;682113;29;1251;-86
2022/01/04 01:10:10;;;;;;;7.60;4.82;;;;;;;10.05;70.81;99536.56;685183;28;835;-86
2022/01/04 01:10:45;;;;;;;6.47;5.32;;;;;;;10.07;71.11;99542.69;680227;29;1033;-85
2022/01/04 01:11:07;;;;;;;7.80;5.60;;;;;;;10.08;71.24;99545.31;681129;29;1416;-85
2022/01/04 01:11:28;;;;;;;8.10;5.40;;;;;;;9.97;71.25;99528.69;684503;28;1373;-85
2022/01/04 01:11:48;;;;;;;6.53;4.90;;;;;;;9.96;71.34;99534.75;681415;29;1154;-86
2022/01/04 01:12:10;;;;;;;7.30;5.05;;;;;;;10.00;71.16;99544.34;679885;29;954;-85
2022/01/04 01:12:30;;;;;;;7.85;5.03;;;;;;;9.98;71.39;99543.47;681524;29;942;-85
2022/01/04 01:12:52;;;;;;;8.20;5.13;;;;;;;10.00;71.09;99541.75;680027;29;871;-86
2022/01/04 01:13:14;;;;;;;7.05;4.75;;;;;;;9.99;71.27;99545.22;685163;28;930;-86
2022/01/04 01:13:35;;;;;;;7.80;5.05;;;;;;;9.93;71.28;99526.91;679953;28;1217;-86
2022/01/04 01:13:56;;;;;;;8.50;5.10;;;;;;;10.00;71.41;99546.97;677301;29;997;-86
2022/01/04 01:14:16;;;;;;;9.65;5.70;;;;;;;9.96;71.19;99539.97;679831;29;1295;-86
2022/01/04 01:14:44;;;;;;;8.80;5.60;;;;;;;10.05;71.23;99549.59;684641;28;1665;-86
2022/01/04 01:15:06;;;;;;;9.18;5.53;;;;;;;9.96;71.31;99534.75;679798;29;1185;-86
2022/01/04 01:15:27;;;;;;;10.12;5.30;;;;;;;9.97;71.42;99536.50;677208;29;1305;-86
2022/01/04 01:15:48;;;;;;;8.80;5.00;;;;;;;9.94;71.16;99526.06;679765;29;1487;-86
2022/01/04 01:16:09;;;;;;;9.27;5.13;;;;;;;9.96;71.31;99534.75;677294;29;1192;-85
2022/01/04 01:16:29;;;;;;;7.32;5.10;;;;;;;9.92;71.32;99525.16;674375;29;1517;-86
2022/01/04 01:16:50;;;;;;;5.93;4.93;;;;;;;9.96;71.39;99529.56;679926;29;1264;-86
2022/01/04 01:17:11;;;;;;;7.57;5.60;;;;;;;9.91;71.27;99528.63;672231;29;1049;-86
2022/01/04 01:17:31;;;;;;;8.47;5.87;;;;;;;9.92;71.17;99527.75;674800;29;1076;-85
2022/01/04 01:18:01;;;;;;;8.90;6.03;;;;;;;9.89;71.61;99522.53;679783;29;1101;-86
2022/01/04 01:18:21;;;;;;;8.48;5.40;;;;;;;9.93;71.48;99524.28;674935;29;1251;-86
2022/01/04 01:18:42;;;;;;;8.97;5.20;;;;;;;9.96;71.52;99530.41;676996;29;1737;-86
2022/01/04 01:19:03;;;;;;;10.30;5.75;;;;;;;9.94;71.58;99523.47;682341;28;1291;-86
2022/01/04 01:19:24;;;;;;;10.30;6.00;;;;;;;9.93;71.29;99524.28;676720;29;1232;-86
2022/01/04 01:19:44;;;;;;;10.77;6.07;;;;;;;10.03;71.71;99541.78;685118;28;1092;-86
2022/01/04 01:20:07;;;;;;;10.50;5.70;;;;;;;10.04;71.53;99532.22;679764;29;1154;-86
2022/01/04 01:20:28;;;;;;;9.30;5.47;;;;;;;10.01;71.63;99533.94;677623;29;1807;-85
2022/01/04 01:20:50;;;;;;;9.43;5.78;;;;;;;10.02;71.29;99532.22;679653;29;1925;-86
2022/01/04 01:21:10;;;;;;;9.00;6.10;;;;;;;9.98;71.53;99536.53;682583;28;1114;-86
2022/01/04 01:21:31;;;;;;;8.83;5.87;;;;;;;9.96;71.38;99539.97;687138;28;1264;-86
2022/01/04 01:21:51;;;;;;;8.40;5.80;;;;;;;9.91;71.45;99523.41;682636;29;1194;-86
2022/01/04 01:22:27;;;;;;;8.60;5.75;;;;;;;9.95;71.17;99523.44;682391;29;1224;-86
2022/01/04 01:22:48;;;;;;;8.02;5.97;;;;;;;9.99;71.31;99521.75;682295;29;1960;-85
2022/01/04 01:23:09;;;;;;;8.93;5.88;;;;;;;9.97;71.51;99518.28;680844;29;1028;-86
2022/01/04 01:23:30;;;;;;;10.38;6.10;;;;;;;9.94;71.25;99523.47;677277;29;1930;-85
2022/01/04 01:23:50;;;;;;;11.73;6.07;;;;;;;9.99;71.70;99529.56;677340;29;1372;-85
2022/01/04 01:24:42;;;;;;;11.93;5.97;;;;;;;10.04;71.31;99537.44;677663;29;1565;-85
2022/01/04 01:25:04;;;;;;;9.68;5.70;;;;;;;10.01;71.54;99527.84;685043;28;1324;-86
2022/01/04 01:25:24;;;;;;;9.85;5.75;;;;;;;10.00;71.26;99513.97;684962;28;1183;-86
2022/01/04 01:25:45;;;;;;;9.20;5.65;;;;;;;10.00;71.49;99523.50;677373;28;1202;-86
2022/01/04 01:26:08;;;;;;;7.78;5.60;;;;;;;9.96;71.37;99509.56;679810;29;1189;-85
2022/01/04 01:26:29;;;;;;;9.60;5.72;;;;;;;10.00;70.98;99518.28;685007;28;1472;-85
2022/01/04 01:26:50;;;;;;;10.13;6.00;;;;;;;9.94;71.39;99515.66;685397;28;717;-86
2022/01/04 01:27:10;;;;;;;13.00;6.20;;;;;;;9.96;71.39;99508.72;682638;29;1095;-85
2022/01/04 01:27:31;;;;;;;11.00;6.07;;;;;;;9.98;71.37;99513.09;679895;29;1353;-84
2022/01/04 01:27:51;;;;;;;9.70;5.80;;;;;;;10.01;71.15;99507.88;680010;29;831;-85
2022/01/04 01:28:14;;;;;;;9.63;5.90;;;;;;;9.99;71.14;99507.00;677192;29;1164;-85
2022/01/04 01:28:35;;;;;;;12.15;6.03;;;;;;;10.07;71.48;99521.84;682333;29;1434;-85
2022/01/04 01:28:56;;;;;;;14.85;6.30;;;;;;;10.02;70.92;99514.00;679940;29;1280;-85
2022/01/04 01:29:16;;;;;;;11.20;5.65;;;;;;;10.01;71.19;99510.50;682232;28;988;-85
2022/01/04 01:29:37;;;;;;;9.93;5.40;;;;;;;9.94;71.02;99492.19;679886;28;1146;-86
2022/01/04 01:29:57;;;;;;;7.78;5.35;;;;;;;10.02;71.46;99508.78;677465;29;1322;-85
2022/01/04 01:30:18;;;;;;;8.70;5.60;;;;;;;9.97;71.31;99505.25;679689;29;1291;-85
2022/01/04 01:30:41;;;;;;;9.23;5.40;;;;;;;9.93;71.44;99493.03;682283;28;1612;-85
2022/01/04 01:31:02;;;;;;;9.82;5.60;;;;;;;9.96;71.12;99503.50;682522;28;1057;-85
2022/01/04 01:31:23;;;;;;;10.27;5.90;;;;;;;9.94;71.25;99500.00;677359;29;1174;-86
2022/01/04 01:31:44;;;;;;;9.00;5.90;;;;;;;9.98;71.19;99504.38;681920;29;1110;-85
2022/01/04 01:32:05;;;;;;;8.00;5.33;;;;;;;9.92;71.30;99493.88;682403;29;1185;-86
2022/01/04 01:32:26;;;;;;;7.05;5.10;;;;;;;9.96;71.48;99506.09;682329;28;1944;-85
2022/01/04 01:32:48;;;;;;;7.93;5.00;;;;;;;9.95;71.34;99492.19;678499;29;1292;-86
2022/01/04 01:33:27;;;;;;;8.63;5.40;;;;;;;9.98;71.31;99506.97;677201;29;1348;-85
2022/01/04 01:33:49;;;;;;;7.97;5.50;;;;;;;9.92;71.31;99491.28;679232;29;1241;-85
2022/01/04 01:34:12;;;;;;;6.80;5.15;;;;;;;9.93;70.96;99498.22;679851;29;1058;-85
2022/01/04 01:34:32;;;;;;;6.72;5.40;;;;;;;9.98;71.34;99504.38;680295;29;1325;-85
2022/01/04 01:34:53;;;;;;;6.57;5.40;;;;;;;9.93;71.59;99496.50;682257;29;1686;-85
2022/01/04 01:35:14;;;;;;;6.53;5.50;;;;;;;9.93;71.38;99493.91;682487;29;1025;-85
2022/01/04 01:35:37;;;;;;;7.60;5.20;;;;;;;9.95;71.61;99507.81;680656;29;1174;-85
2022/01/04 01:35:58;;;;;;;8.30;5.20;;;;;;;9.87;71.56;99489.53;679861;29;1053;-86
2022/01/04 01:36:18;;;;;;;8.35;5.32;;;;;;;9.90;71.38;99487.78;679788;28;1171;-85
2022/01/04 01:36:39;;;;;;;8.40;5.53;;;;;;;9.99;71.41;99503.50;685082;28;1258;-85
2022/01/04 01:36:59;;;;;;;8.98;5.70;;;;;;;9.92;71.48;99512.13;685147;28;1095;-86
2022/01/04 01:37:20;;;;;;;9.67;5.57;;;;;;;9.94;71.22;99498.25;682553;29;1079;-84
2022/01/04 01:37:40;;;;;;;9.30;5.40;;;;;;;9.89;71.44;99499.94;676175;29;1045;-85
2022/01/04 01:38:01;;;;;;;8.27;5.35;;;;;;;9.87;71.65;99486.03;682465;29;1220;-85
2022/01/04 01:38:23;;;;;;;9.88;5.70;;;;;;;9.85;71.53;99499.03;682564;28;1356;-85
2022/01/04 01:38:45;;;;;;;9.55;5.60;;;;;;;9.88;71.37;99500.78;679796;29;1083;-85
2022/01/04 01:39:05;;;;;;;8.13;5.30;;;;;;;9.85;71.50;99499.03;674550;29;1203;-86
2022/01/04 01:39:26;;;;;;;10.43;5.18;;;;;;;9.98;71.52;99506.97;676834;29;1096;-85
2022/01/04 01:39:47;;;;;;;11.35;5.30;;;;;;;9.92;71.48;99491.28;677209;29;1162;-86
2022/01/04 01:40:08;;;;;;;12.00;5.30;;;;;;;9.90;71.40;99487.78;674600;29;1260;-86
2022/01/04 01:40:29;;;;;;;9.00;5.15;;;;;;;9.89;71.27;99496.47;671856;29;1543;-85
2022/01/04 01:40:51;;;;;;;9.68;4.97;;;;;;;9.93;71.09;99503.44;682280;29;1877;-86
2022/01/04 01:41:11;;;;;;;8.10;4.97;;;;;;;9.92;71.34;99497.38;682277;29;1220;-85
2022/01/04 01:41:32;;;;;;;8.23;5.30;;;;;;;9.91;71.34;99497.34;679106;29;1849;-86
2022/01/04 01:41:53;;;;;;;6.90;5.23;;;;;;;9.92;71.25;99501.69;677291;29;1245;-85
2022/01/04 01:42:14;;;;;;;7.18;5.15;;;;;;;9.91;71.29;99499.97;679553;29;1787;-86
2022/01/04 01:42:34;;;;;;;7.68;5.20;;;;;;;9.83;71.56;99487.72;677090;29;1135;-85
2022/01/04 01:42:55;;;;;;;7.13;5.20;;;;;;;9.96;70.95;99503.50;674737;29;1170;-86
2022/01/04 01:43:16;;;;;;;7.60;5.10;;;;;;;9.88;71.33;99498.19;679929;29;1361;-85
2022/01/04 01:43:36;;;;;;;7.30;5.00;;;;;;;9.87;71.53;99494.72;676893;29;1907;-85
2022/01/04 01:43:57;;;;;;;8.60;5.00;;;;;;;9.91;71.36;99498.25;677323;29;1524;-85
2022/01/04 01:44:18;;;;;;;8.77;5.18;;;;;;;9.83;71.32;99492.06;682339;28;1108;-85
2022/01/04 01:44:38;;;;;;;8.67;5.27;;;;;;;9.82;71.43;99495.50;678177;29;1855;-85
2022/01/04 01:44:59;;;;;;;9.73;5.28;;;;;;;9.83;71.20;99497.28;685477;28;1178;-86
2022/01/04 01:45:21;;;;;;;9.93;5.20;;;;;;;9.82;71.29;99490.31;679863;28;1211;-85
2022/01/04 01:45:43;;;;;;;12.40;5.30;;;;;;;9.85;71.27;99499.03;684185;28;1229;-85
2022/01/04 01:46:03;;;;;;;11.05;5.30;;;;;;;9.85;71.66;99496.41;677204;29;1254;-85
2022/01/04 01:46:24;;;;;;;10.73;5.20;;;;;;;9.77;71.33;99490.25;678504;29;1475;-85
2022/01/04 01:46:44;;;;;;;8.88;5.20;;;;;;;9.79;71.64;99493.78;682024;29;1079;-84
2022/01/04 01:47:05;;;;;;;7.93;5.20;;;;;;;9.71;71.41;99500.63;682386;29;1291;-85
2022/01/04 01:47:27;;;;;;;7.60;5.20;;;;;;;9.67;71.55;99496.22;671888;29;1716;-85
2022/01/04 01:51:28;;;;;;;9.15;5.57;;;;;;;9.83;71.76;99487.72;686954;28;1272;-86
2022/01/04 01:51:48;;;;;;;8.45;5.70;;;;;;;9.84;71.41;99484.25;685427;28;1757;-85